Time;durP1;ratioP1;P1;durP2;ratioP2;P2;SDS_P1;SDS_P2;PMS_P1;PMS_P2;Temp;Humidity;BMP_temperature;BMP_pressure;BME280_temperature;BME280_humidity;BME280_pressure;Samples;Min_cycle;Max_cycle;Signal;HPM_P1;HPM_P2
2023/10/12 00:01:59;;;;;;;7.63;4.43;;;;;;;16.75;94.45;98112.06;5114060;28;20187;-74
2023/10/12 00:04:35;;;;;;;7.03;4.17;;;;;;;16.62;97.06;98107.09;5113582;28;20666;-75
2023/10/12 00:07:09;;;;;;;8.77;4.60;;;;;;;16.48;97.16;98111.28;5114029;28;20210;-74
2023/10/12 00:09:35;;;;;;;13.77;5.10;;;;;;;16.47;98.90;98106.16;5113849;28;20204;-74
2023/10/12 00:12:07;;;;;;;6.93;5.10;;;;;;;16.46;99.33;98101.88;5115642;28;20225;-74
2023/10/12 00:14:35;;;;;;;10.17;5.50;;;;;;;16.49;99.66;98098.66;5117844;28;20229;-74
2023/10/12 00:17:03;;;;;;;9.30;5.23;;;;;;;16.41;99.44;98097.25;5117469;28;20658;-74
2023/10/12 00:19:31;;;;;;;10.10;5.40;;;;;;;16.35;100.00;98097.44;5117700;28;20216;-74
2023/10/12 00:22:00;;;;;;;8.17;5.10;;;;;;;16.28;100.00;98102.19;5117623;28;20203;-74
2023/10/12 00:24:27;;;;;;;8.93;5.13;;;;;;;16.24;100.00;98096.50;5117479;28;20565;-74
2023/10/12 00:26:54;;;;;;;6.27;4.40;;;;;;;16.29;100.00;98090.41;5117367;28;20203;-74
2023/10/12 00:29:22;;;;;;;7.67;4.80;;;;;;;16.28;100.00;98094.16;5117468;28;20231;-74
2023/10/12 00:31:49;;;;;;;11.90;5.00;;;;;;;16.29;100.00;98090.41;5117558;28;20208;-74
2023/10/12 00:34:22;;;;;;;8.03;5.20;;;;;;;16.34;100.00;98088.59;5117533;28;20622;-74
2023/10/12 00:36:52;;;;;;;6.67;4.47;;;;;;;16.29;100.00;98085.81;5117473;28;20192;-74
2023/10/12 00:39:20;;;;;;;9.07;4.70;;;;;;;16.36;100.00;98080.25;5116930;28;20219;-74
2023/10/12 00:41:48;;;;;;;10.43;4.90;;;;;;;16.46;100.00;98085.78;5117331;28;20249;-74
2023/10/12 00:44:18;;;;;;;11.77;4.27;;;;;;;16.46;100.00;98080.41;5117263;28;20203;-74
2023/10/12 00:47:07;;;;;;;5.00;4.03;;;;;;;16.49;99.80;98085.25;5117187;28;20191;-74
2023/10/12 00:49:38;;;;;;;9.57;4.30;;;;;;;16.48;100.00;98080.94;5116818;28;20674;-74
2023/10/12 00:52:21;;;;;;;8.07;4.70;;;;;;;16.38;100.00;98076.25;5117211;28;20241;-74
2023/10/12 00:54:55;;;;;;;8.47;4.60;;;;;;;16.38;100.00;98073.56;5116006;28;20274;-74
2023/10/12 00:57:23;;;;;;;11.27;4.30;;;;;;;16.40;100.00;98070.66;5117490;28;20240;-74
2023/10/12 00:59:51;;;;;;;7.47;3.77;;;;;;;16.30;100.00;98068.69;5116623;28;20203;-74
2023/10/12 01:02:21;;;;;;;8.07;4.20;;;;;;;16.27;100.00;98063.81;5116968;27;20207;-75
2023/10/12 01:04:49;;;;;;;6.50;3.73;;;;;;;16.25;100.00;98065.16;5117102;28;20203;-74
2023/10/12 01:07:20;;;;;;;6.47;4.03;;;;;;;16.36;100.00;98067.66;5116539;28;20231;-74
2023/10/12 01:09:54;;;;;;;7.23;4.20;;;;;;;16.41;100.00;98065.06;5116582;28;20269;-74
2023/10/12 01:12:30;;;;;;;6.77;4.50;;;;;;;16.33;100.00;98060.13;5116629;28;20191;-74
2023/10/12 01:14:56;;;;;;;12.43;4.73;;;;;;;16.39;100.00;98064.47;5116044;28;20233;-74
2023/10/12 01:17:25;;;;;;;8.67;4.33;;;;;;;16.37;100.00;98055.06;5116047;28;20256;-74
2023/10/12 01:19:52;;;;;;;7.67;4.43;;;;;;;16.33;100.00;98065.47;5116102;28;20562;-74
2023/10/12 01:22:25;;;;;;;6.20;4.07;;;;;;;16.26;100.00;98064.91;5116214;28;20243;-74
2023/10/12 01:25:00;;;;;;;9.17;4.43;;;;;;;16.14;100.00;98074.13;5116210;28;20192;-74
2023/10/12 01:27:27;;;;;;;6.83;4.53;;;;;;;16.13;100.00;98065.31;5116423;28;20191;-74
2023/10/12 01:29:58;;;;;;;8.40;4.33;;;;;;;16.07;100.00;98065.50;5116305;28;20219;-74
2023/10/12 01:32:28;;;;;;;12.30;5.30;;;;;;;16.03;100.00;98062.53;5116230;27;20274;-74
2023/10/12 01:34:57;;;;;;;8.73;5.13;;;;;;;16.01;100.00;98064.63;5115957;28;20240;-74
2023/10/12 01:37:25;;;;;;;7.67;4.93;;;;;;;15.96;100.00;98053.88;5116111;28;20254;-74
2023/10/12 01:40:10;;;;;;;9.23;4.77;;;;;;;15.95;100.00;98052.25;5115847;28;20203;-75
2023/10/12 01:42:43;;;;;;;8.90;4.33;;;;;;;16.00;100.00;98057.66;5116146;28;20191;-74
2023/10/12 01:45:18;;;;;;;11.30;4.80;;;;;;;15.97;100.00;98050.13;5115781;28;20192;-74
2023/10/12 01:47:51;;;;;;;8.80;5.10;;;;;;;15.77;100.00;98051.78;5115964;28;20233;-74
2023/10/12 01:50:18;;;;;;;7.00;4.97;;;;;;;15.87;100.00;98051.91;5115991;28;20214;-74
2023/10/12 01:52:46;;;;;;;7.97;4.90;;;;;;;15.74;100.00;98050.41;5115837;28;20260;-74
2023/10/12 01:55:19;;;;;;;7.17;4.60;;;;;;;15.76;100.00;98050.97;5115919;28;20218;-75
2023/10/12 01:57:52;;;;;;;7.83;4.70;;;;;;;15.75;100.00;98049.34;5115776;27;20318;-75
2023/10/12 02:00:24;;;;;;;10.23;4.57;;;;;;;15.77;100.00;98047.22;5115795;28;20184;-74
2023/10/12 02:03:00;;;;;;;9.97;4.90;;;;;;;15.77;100.00;98041.88;5115757;28;20199;-74
2023/10/12 02:05:29;;;;;;;8.77;4.57;;;;;;;15.80;100.00;98027.16;5115766;28;20206;-74
2023/10/12 02:07:56;;;;;;;6.40;4.43;;;;;;;15.78;100.00;98040.81;5115334;28;20284;-74
2023/10/12 02:10:25;;;;;;;10.53;4.73;;;;;;;15.81;100.00;98036.81;5115540;28;20226;-74
2023/10/12 02:12:55;;;;;;;6.33;4.37;;;;;;;15.83;100.00;98038.19;5115629;28;20207;-75
2023/10/12 02:15:24;;;;;;;7.07;4.00;;;;;;;15.90;100.00;98044.16;5115532;28;20196;-74
2023/10/12 02:17:51;;;;;;;6.17;3.97;;;;;;;15.88;100.00;98043.59;5114839;28;20366;-74
2023/10/12 02:20:18;;;;;;;8.53;4.50;;;;;;;15.83;100.00;98042.75;5115372;28;20203;-74
2023/10/12 02:22:46;;;;;;;6.97;4.43;;;;;;;15.90;100.00;98046.03;5115283;28;20281;-74
2023/10/12 02:25:18;;;;;;;6.93;4.73;;;;;;;16.00;100.00;98046.13;5115378;27;20199;-74
2023/10/12 02:27:54;;;;;;;6.03;3.87;;;;;;;16.03;100.00;98053.66;5114941;27;20258;-74
2023/10/12 02:30:27;;;;;;;6.47;4.43;;;;;;;15.96;100.00;98051.19;5115286;28;20211;-75
2023/10/12 02:33:01;;;;;;;6.10;3.93;;;;;;;16.01;100.00;98045.88;5115083;28;20191;-74
2023/10/12 02:35:36;;;;;;;6.07;4.13;;;;;;;16.00;100.00;98049.63;5113993;28;20198;-74
2023/10/12 02:38:06;;;;;;;9.17;4.63;;;;;;;16.04;100.00;98050.72;5115020;28;20295;-74
2023/10/12 02:40:33;;;;;;;6.47;4.53;;;;;;;16.00;100.00;98044.25;5115037;28;20187;-75
2023/10/12 02:43:00;;;;;;;8.17;4.53;;;;;;;16.02;100.00;98047.47;5115063;28;20222;-75
2023/10/12 02:45:28;;;;;;;9.20;4.43;;;;;;;15.97;100.00;98044.75;5115045;28;20575;-74
2023/10/12 02:47:54;;;;;;;7.57;4.40;;;;;;;15.84;100.00;98042.47;5114856;28;20227;-74
2023/10/12 02:50:29;;;;;;;6.80;4.20;;;;;;;15.95;100.00;98044.22;5114765;28;20223;-74
2023/10/12 02:52:56;;;;;;;7.40;4.00;;;;;;;15.90;100.00;98036.13;5114884;28;20198;-74
2023/10/12 02:55:40;;;;;;;6.80;4.17;;;;;;;15.95;100.00;98041.53;5114738;28;20203;-74
2023/10/12 02:58:17;;;;;;;7.07;4.13;;;;;;;16.00;100.00;98043.44;5114630;27;20231;-74
2023/10/12 03:00:45;;;;;;;7.97;4.20;;;;;;;15.98;100.00;98049.06;5114371;28;20699;-74
2023/10/12 03:03:21;;;;;;;8.53;4.17;;;;;;;16.07;100.00;98041.38;5114714;28;20211;-74
2023/10/12 03:05:49;;;;;;;7.53;4.50;;;;;;;16.08;100.00;98037.63;5114618;28;20191;-74
2023/10/12 03:08:17;;;;;;;6.47;4.33;;;;;;;16.20;100.00;98044.44;5114262;28;20725;-75
2023/10/12 03:13:57;;;;;;;6.13;4.20;;;;;;;16.11;100.00;98039.81;5031570;28;20619;-74
2023/10/12 03:16:24;;;;;;;8.07;4.13;;;;;;;16.14;100.00;98041.97;5031390;28;20213;-74
2023/10/12 03:19:00;;;;;;;7.83;4.40;;;;;;;16.17;100.00;98033.41;5073788;28;20242;-75
2023/10/12 03:21:33;;;;;;;7.10;4.30;;;;;;;16.18;100.00;98040.38;5114361;28;20186;-74
2023/10/12 03:24:03;;;;;;;5.43;3.83;;;;;;;16.11;100.00;98037.13;5114326;28;20553;-74
2023/10/12 03:26:32;;;;;;;7.30;4.33;;;;;;;16.12;100.00;98042.22;5114601;28;20230;-75
2023/10/12 03:29:08;;;;;;;9.50;4.20;;;;;;;16.21;100.00;98035.34;5114113;28;20263;-75
2023/10/12 03:31:40;;;;;;;8.07;4.30;;;;;;;16.28;100.00;98043.97;5114237;28;20191;-75
2023/10/12 03:34:16;;;;;;;6.40;3.83;;;;;;;16.35;100.00;98038.41;5114006;28;20241;-75
2023/10/12 03:36:47;;;;;;;5.43;3.90;;;;;;;16.42;100.00;98042.50;5114299;28;20295;-74
2023/10/12 03:39:25;;;;;;;7.50;4.20;;;;;;;16.37;100.00;98038.97;5114117;28;20223;-74
2023/10/12 03:42:10;;;;;;;9.03;4.90;;;;;;;16.39;100.00;98048.38;5114193;28;20191;-75
2023/10/12 03:44:48;;;;;;;6.57;4.10;;;;;;;16.42;100.00;98039.81;5114052;28;20210;-75
2023/10/12 03:47:16;;;;;;;7.50;4.40;;;;;;;16.48;100.00;98033.47;5116485;28;20689;-74
2023/10/12 03:49:58;;;;;;;6.70;4.30;;;;;;;16.47;100.00;98031.81;5118015;28;20250;-75
2023/10/12 03:52:34;;;;;;;7.63;4.27;;;;;;;16.44;100.00;98037.72;5119288;28;20187;-75
2023/10/12 03:55:26;;;;;;;5.80;4.40;;;;;;;16.43;100.00;98038.78;5118335;28;20191;-75
2023/10/12 03:58:05;;;;;;;6.40;4.20;;;;;;;16.41;100.00;98040.09;5117883;28;20601;-74
2023/10/12 04:00:40;;;;;;;7.20;4.27;;;;;;;16.49;100.00;98048.50;5117867;28;20657;-74
2023/10/12 04:03:12;;;;;;;6.23;3.90;;;;;;;16.45;100.00;98033.97;5118003;28;20531;-75
2023/10/12 04:05:55;;;;;;;6.70;4.10;;;;;;;16.58;100.00;98033.53;5117899;28;20282;-75
2023/10/12 04:08:44;;;;;;;7.50;4.13;;;;;;;16.53;100.00;98035.34;5117960;28;20222;-75
2023/10/12 04:14:20;;;;;;;8.03;3.90;;;;;;;16.54;100.00;98040.47;5117430;28;20639;-74
2023/10/12 04:16:56;;;;;;;5.90;4.30;;;;;;;16.49;100.00;98036.94;5117441;28;20206;-74
2023/10/12 04:19:29;;;;;;;5.37;4.20;;;;;;;16.42;100.00;98041.72;5117137;28;20318;-75
2023/10/12 04:22:06;;;;;;;6.93;4.10;;;;;;;16.40;100.00;98043.84;5116984;28;20553;-74
2023/10/12 04:24:43;;;;;;;8.93;4.07;;;;;;;16.37;100.00;98039.75;5116945;27;20669;-75
2023/10/12 04:27:24;;;;;;;6.00;4.10;;;;;;;16.26;100.00;98054.16;5117390;28;20244;-74
2023/10/12 04:29:57;;;;;;;7.27;4.20;;;;;;;16.31;100.00;98056.88;5117061;28;20596;-74
2023/10/12 04:35:18;;;;;;;7.80;4.53;;;;;;;16.21;100.00;98056.81;5109876;28;20670;-74
2023/10/12 04:37:47;;;;;;;8.63;4.33;;;;;;;16.28;100.00;98062.75;5116787;28;20800;-75
2023/10/12 04:40:33;;;;;;;5.93;4.70;;;;;;;16.11;100.00;98054.00;5117048;28;20285;-74
2023/10/12 04:43:06;;;;;;;10.97;5.17;;;;;;;16.12;100.00;98058.31;5116929;28;20188;-74
2023/10/12 04:46:16;;;;;;;8.40;5.23;;;;;;;16.06;100.00;98055.84;5117295;28;20222;-75
2023/10/12 04:48:21;;;;;;;7.67;4.60;;;;;;;16.02;100.00;98055.53;5116411;28;20234;-75
2023/10/12 04:50:52;;;;;;;11.30;4.93;;;;;;;16.04;100.00;98057.97;5116997;28;20310;-75
2023/10/12 04:53:20;;;;;;;11.37;4.87;;;;;;;16.16;100.00;98059.44;5116852;28;20252;-74
2023/10/12 04:55:50;;;;;;;8.47;5.30;;;;;;;16.14;100.00;98053.50;5116878;28;20192;-75
2023/10/12 04:58:32;;;;;;;8.80;5.00;;;;;;;16.13;100.00;98054.56;5115398;28;20219;-75
2023/10/12 05:01:12;;;;;;;12.17;5.87;;;;;;;16.09;100.00;98056.16;5118203;28;20270;-74
2023/10/12 05:03:41;;;;;;;10.23;4.90;;;;;;;15.98;100.00;98058.97;5118697;28;20187;-74
2023/10/12 05:06:13;;;;;;;11.77;5.53;;;;;;;15.91;100.00;98059.19;5117391;27;20242;-74
2023/10/12 05:08:40;;;;;;;10.60;5.23;;;;;;;15.81;100.00;98061.75;5118186;28;20279;-74
2023/10/12 05:11:08;;;;;;;10.33;5.70;;;;;;;15.96;100.00;98061.91;5118186;28;20223;-74
2023/10/12 05:13:35;;;;;;;9.10;5.30;;;;;;;15.96;100.00;98058.44;5118879;28;20207;-74
2023/10/12 05:16:06;;;;;;;14.97;5.70;;;;;;;15.87;100.00;98066.09;5117413;28;20200;-75
2023/10/12 05:18:34;;;;;;;13.47;5.33;;;;;;;15.90;100.00;98049.53;5116608;28;20249;-75
2023/10/12 05:21:01;;;;;;;10.33;5.63;;;;;;;15.92;100.00;98058.09;5117322;28;20203;-75
2023/10/12 05:23:29;;;;;;;11.87;5.30;;;;;;;15.94;100.00;98050.63;5116880;28;20550;-74
2023/10/12 05:26:07;;;;;;;12.07;6.03;;;;;;;15.89;100.00;98049.78;5116457;28;20199;-75
2023/10/12 05:28:36;;;;;;;10.83;5.53;;;;;;;15.97;100.00;98058.16;5115971;28;20226;-75
2023/10/12 05:31:10;;;;;;;12.03;5.43;;;;;;;15.95;100.00;98068.34;5116379;28;20230;-75
2023/10/12 05:34:00;;;;;;;6.40;5.00;;;;;;;15.96;100.00;98064.59;5115212;28;20188;-75
2023/10/12 05:36:28;;;;;;;8.30;5.23;;;;;;;15.95;100.00;98068.34;5116397;28;20346;-74
2023/10/12 05:39:11;;;;;;;10.33;5.20;;;;;;;16.00;100.00;98076.44;5115453;28;20766;-74
2023/10/12 05:41:38;;;;;;;8.77;5.23;;;;;;;15.96;100.00;98067.28;5115505;28;20274;-75
2023/10/12 05:44:08;;;;;;;10.83;5.83;;;;;;;15.95;100.00;98065.66;5115361;28;20203;-75
2023/10/12 05:46:38;;;;;;;10.50;5.37;;;;;;;16.03;100.00;98069.75;5115828;28;20527;-74
2023/10/12 05:49:12;;;;;;;9.93;5.13;;;;;;;16.01;100.00;98071.88;5116893;27;20230;-74
2023/10/12 05:51:42;;;;;;;9.63;5.67;;;;;;;16.05;100.00;98073.81;5116621;28;20250;-75
2023/10/12 05:54:09;;;;;;;8.90;5.70;;;;;;;16.03;100.00;98075.94;5115215;28;20207;-75
2023/10/12 05:56:36;;;;;;;10.37;5.87;;;;;;;16.05;100.00;98081.84;5115099;28;20230;-75
2023/10/12 05:59:03;;;;;;;11.07;5.63;;;;;;;15.93;100.00;98075.81;5116167;28;20226;-75
2023/10/12 06:01:32;;;;;;;12.70;5.67;;;;;;;15.88;100.00;98086.47;5115585;28;20199;-74
2023/10/12 06:04:06;;;;;;;12.97;5.70;;;;;;;15.89;100.00;98084.63;5115385;27;20232;-75
2023/10/12 06:06:41;;;;;;;16.17;6.57;;;;;;;15.93;100.00;98080.38;5114933;27;20195;-74
2023/10/12 06:09:13;;;;;;;10.17;5.97;;;;;;;15.96;100.00;98077.19;5114662;28;20262;-75
2023/10/12 06:11:46;;;;;;;11.83;6.20;;;;;;;16.02;100.00;98076.19;5115461;28;20188;-76
2023/10/12 06:14:14;;;;;;;12.20;6.17;;;;;;;16.06;100.00;98079.97;5115062;28;20188;-75
2023/10/12 06:16:41;;;;;;;14.87;6.20;;;;;;;16.15;100.00;98081.94;5114761;28;20215;-75
2023/10/12 06:19:21;;;;;;;13.03;6.27;;;;;;;16.20;100.00;98087.34;5114451;28;20229;-75
2023/10/12 06:21:51;;;;;;;11.13;6.00;;;;;;;16.28;100.00;98092.25;5115665;28;20219;-75
2023/10/12 06:24:33;;;;;;;11.50;5.83;;;;;;;16.35;100.00;98086.69;5114697;28;20239;-75
2023/10/12 06:27:02;;;;;;;12.40;6.67;;;;;;;16.34;100.00;98088.59;5114110;28;20209;-75
2023/10/12 06:29:29;;;;;;;10.23;6.10;;;;;;;16.42;100.00;98090.03;5114280;28;20278;-75
2023/10/12 06:31:57;;;;;;;15.67;7.10;;;;;;;16.46;100.00;98094.59;5114583;28;20274;-75
2023/10/12 06:34:24;;;;;;;13.40;6.43;;;;;;;16.54;100.00;98091.47;5114218;28;20277;-75
2023/10/12 06:36:57;;;;;;;10.63;6.27;;;;;;;16.66;100.00;98104.72;5114653;27;20206;-75
2023/10/12 06:42:25;;;;;;;11.70;6.30;;;;;;;16.75;100.00;98101.31;5114481;28;20194;-75
2023/10/12 06:44:50;;;;;;;13.60;7.00;;;;;;;16.81;100.00;98100.28;5114473;28;20222;-75
2023/10/12 06:47:40;;;;;;;12.57;6.63;;;;;;;16.88;100.00;98103.53;5113744;28;20664;-75
2023/10/12 06:50:14;;;;;;;13.53;6.77;;;;;;;17.07;100.00;98110.13;5114043;28;20226;-75
2023/10/12 06:52:40;;;;;;;17.17;6.70;;;;;;;17.21;100.00;98122.03;5114334;28;20192;-75
2023/10/12 06:55:08;;;;;;;13.37;6.67;;;;;;;17.20;100.00;98125.78;5113972;28;20611;-75
2023/10/12 06:57:42;;;;;;;14.83;7.00;;;;;;;17.22;100.00;98120.97;5114038;28;20623;-76
2023/10/12 07:00:19;;;;;;;11.80;6.83;;;;;;;17.31;100.00;98127.47;5114492;28;20266;-75
2023/10/12 07:02:45;;;;;;;18.03;7.30;;;;;;;17.41;100.00;98129.47;5114493;28;20187;-75
2023/10/12 07:05:11;;;;;;;12.07;6.30;;;;;;;17.51;100.00;98140.25;5114254;28;20255;-75
2023/10/12 07:07:40;;;;;;;12.27;6.43;;;;;;;17.67;100.00;98132.00;5114062;28;20222;-75
2023/10/12 07:10:17;;;;;;;12.63;6.00;;;;;;;17.80;100.00;98131.53;5114431;28;20231;-75
2023/10/12 07:12:47;;;;;;;10.43;5.60;;;;;;;17.85;99.19;98142.31;5114633;28;20231;-75
2023/10/12 07:15:19;;;;;;;12.67;5.93;;;;;;;18.09;94.41;98145.34;5114017;28;20270;-75
2023/10/12 07:17:49;;;;;;;12.60;5.70;;;;;;;18.23;94.80;98141.88;5114373;28;20227;-75
2023/10/12 07:20:27;;;;;;;10.13;5.70;;;;;;;18.36;94.23;98151.34;5114292;27;20260;-75
2023/10/12 07:22:55;;;;;;;12.83;5.43;;;;;;;18.50;92.09;98152.47;5114056;28;20191;-75
2023/10/12 07:25:23;;;;;;;10.37;5.33;;;;;;;18.50;94.73;98150.59;5114559;27;20203;-75
2023/10/12 07:27:56;;;;;;;11.70;5.70;;;;;;;18.59;93.99;98150.88;5113792;28;20231;-75
2023/10/12 07:30:30;;;;;;;11.37;7.23;;;;;;;18.57;93.62;98155.72;5113952;28;20290;-75
2023/10/12 07:33:00;;;;;;;14.07;5.93;;;;;;;18.72;93.44;98161.94;5113967;28;20191;-75
2023/10/12 07:35:34;;;;;;;11.10;5.50;;;;;;;18.76;92.26;98157.63;5113742;28;20188;-75
2023/10/12 07:38:02;;;;;;;11.13;5.33;;;;;;;18.74;92.42;98153.59;5113659;28;20265;-75
2023/10/12 07:40:36;;;;;;;12.23;5.47;;;;;;;18.80;89.77;98152.50;5113572;28;20738;-75
2023/10/12 07:43:07;;;;;;;10.03;5.27;;;;;;;18.76;90.22;98149.53;5113768;28;20195;-75
2023/10/12 07:45:38;;;;;;;11.27;5.03;;;;;;;18.61;88.32;98144.16;5113525;28;20650;-75
2023/10/12 07:48:09;;;;;;;13.37;5.13;;;;;;;18.65;89.45;98145.25;5113599;28;20639;-75
2023/10/12 07:50:37;;;;;;;13.67;6.20;;;;;;;18.51;88.34;98152.19;5113926;28;20238;-75
2023/10/12 07:53:21;;;;;;;11.83;5.60;;;;;;;18.53;88.75;98152.75;5113924;28;20297;-75
2023/10/12 07:55:53;;;;;;;11.17;5.50;;;;;;;18.52;89.55;98156.53;5113991;28;20207;-75
2023/10/12 07:58:21;;;;;;;10.23;5.90;;;;;;;18.43;93.42;98157.31;5113626;28;20306;-75
2023/10/12 08:01:02;;;;;;;10.03;5.57;;;;;;;18.40;92.94;98152.44;5113674;28;20654;-75
2023/10/12 08:03:36;;;;;;;15.73;5.93;;;;;;;18.34;92.45;98157.03;5113902;28;20548;-75
2023/10/12 08:06:08;;;;;;;10.83;5.50;;;;;;;18.39;93.88;98157.03;5113700;28;20187;-75
2023/10/12 08:08:34;;;;;;;11.73;5.17;;;;;;;18.46;95.03;98152.19;5113976;28;20313;-75
2023/10/12 08:11:09;;;;;;;11.33;5.30;;;;;;;18.36;97.25;98152.16;5113623;28;20648;-75
2023/10/12 08:13:39;;;;;;;10.20;5.40;;;;;;;18.34;96.32;98153.50;5113627;28;20187;-75
2023/10/12 08:16:13;;;;;;;8.53;5.13;;;;;;;18.38;93.88;98150.03;5113261;28;20217;-75
2023/10/12 08:19:23;;;;;;;12.73;5.10;;;;;;;18.47;93.51;98147.63;5113397;28;20219;-75
2023/10/12 08:21:42;;;;;;;7.80;4.80;;;;;;;18.69;88.61;98146.28;5113325;28;20199;-75
2023/10/12 08:24:23;;;;;;;7.77;5.17;;;;;;;18.68;87.58;98149.28;5112905;28;20568;-75
2023/10/12 08:26:57;;;;;;;9.97;4.83;;;;;;;18.79;85.40;98142.81;5113488;28;20191;-75
2023/10/12 08:32:10;;;;;;;8.73;4.10;;;;;;;19.07;80.28;98148.47;5113564;28;20311;-75
2023/10/12 08:34:42;;;;;;;6.63;4.30;;;;;;;19.19;79.43;98146.28;5118370;28;20286;-75
2023/10/12 08:37:17;;;;;;;8.67;4.43;;;;;;;19.18;78.74;98155.44;5117157;27;20195;-75
2023/10/12 08:40:01;;;;;;;7.43;4.10;;;;;;;19.28;78.00;98155.47;5117308;28;20274;-75
2023/10/12 08:42:37;;;;;;;7.03;4.27;;;;;;;19.30;77.39;98156.03;5117088;28;20206;-75
2023/10/12 08:45:14;;;;;;;9.10;4.60;;;;;;;19.31;77.50;98157.63;5117590;28;20227;-75
2023/10/12 08:47:48;;;;;;;6.20;3.90;;;;;;;19.40;76.26;98153.28;5117109;28;20249;-75
2023/10/12 08:53:03;;;;;;;5.80;4.73;;;;;;;19.53;75.27;98152.72;5116416;28;20234;-75
2023/10/12 08:55:32;;;;;;;6.23;3.87;;;;;;;19.65;73.31;98149.72;5116659;28;20639;-75
2023/10/12 08:58:11;;;;;;;6.30;4.20;;;;;;;19.72;73.90;98144.88;5116540;28;20227;-75
2023/10/12 09:00:44;;;;;;;7.43;4.13;;;;;;;19.69;73.48;98146.19;5116925;28;20270;-75
2023/10/12 09:03:24;;;;;;;6.50;4.27;;;;;;;19.73;72.59;98149.97;5116374;28;20553;-75
2023/10/12 09:05:52;;;;;;;9.27;4.63;;;;;;;19.78;73.16;98155.34;5116575;28;20195;-75
2023/10/12 09:11:14;;;;;;;5.70;4.47;;;;;;;19.69;74.24;98161.59;5116573;28;20244;-75
2023/10/12 09:13:45;;;;;;;8.10;4.57;;;;;;;19.71;75.00;98153.22;5116493;28;20278;-75
2023/10/12 09:16:14;;;;;;;9.30;4.80;;;;;;;19.68;75.20;98147.28;5116475;28;20245;-75
2023/10/12 09:18:44;;;;;;;9.23;4.63;;;;;;;19.69;75.68;98148.09;5116299;28;20246;-75
2023/10/12 09:21:40;;;;;;;9.40;4.63;;;;;;;19.72;74.61;98154.84;5116630;28;20549;-75
2023/10/12 09:24:14;;;;;;;8.13;4.37;;;;;;;19.75;74.31;98160.50;5116452;28;20198;-76
2023/10/12 09:26:47;;;;;;;8.87;4.77;;;;;;;19.87;72.25;98166.41;5116308;28;20589;-75
2023/10/12 09:29:21;;;;;;;9.60;4.80;;;;;;;19.86;74.67;98162.09;5116234;28;20227;-75
2023/10/12 09:32:14;;;;;;;8.23;4.60;;;;;;;20.00;71.97;98156.88;5116403;28;20206;-75
2023/10/12 09:35:02;;;;;;;7.03;4.90;;;;;;;20.00;73.01;98168.50;5116638;28;20209;-76
2023/10/12 09:37:33;;;;;;;9.33;4.40;;;;;;;20.05;72.11;98165.78;5115918;28;20223;-75
2023/10/12 09:40:00;;;;;;;9.07;5.00;;;;;;;20.03;72.56;98162.53;5116772;28;20236;-75
2023/10/12 09:42:31;;;;;;;8.83;4.97;;;;;;;20.14;73.19;98158.75;5115904;28;20214;-75
2023/10/12 09:45:10;;;;;;;10.43;5.17;;;;;;;20.09;73.51;98166.88;5115587;28;20211;-75
2023/10/12 09:47:50;;;;;;;11.03;5.07;;;;;;;20.10;71.54;98154.16;5115955;28;20227;-75
2023/10/12 09:50:27;;;;;;;8.43;4.57;;;;;;;20.18;72.86;98159.00;5115266;28;20212;-74
2023/10/12 09:52:58;;;;;;;8.03;4.90;;;;;;;20.09;73.23;98164.19;5115643;27;20194;-75
2023/10/12 09:55:34;;;;;;;6.53;4.70;;;;;;;20.11;72.26;98169.31;5115761;28;20187;-75
2023/10/12 09:58:13;;;;;;;7.10;4.67;;;;;;;20.19;73.10;98161.44;5115137;28;20624;-75
2023/10/12 10:03:34;;;;;;;7.47;4.83;;;;;;;20.11;75.17;98169.31;5115448;27;20289;-76
2023/10/12 10:06:19;;;;;;;8.27;5.33;;;;;;;20.14;75.43;98164.16;5115731;28;20187;-76
2023/10/12 10:08:46;;;;;;;12.30;5.23;;;;;;;20.24;71.97;98158.69;5115018;28;20776;-76
2023/10/12 10:11:13;;;;;;;10.50;5.77;;;;;;;20.24;73.20;98153.28;5113903;28;20275;-76
2023/10/12 10:13:41;;;;;;;7.47;5.50;;;;;;;20.34;72.88;98163.25;5114765;28;20207;-76
2023/10/12 10:16:10;;;;;;;9.20;4.90;;;;;;;20.39;72.91;98160.53;5114676;28;20215;-76
2023/10/12 10:19:10;;;;;;;7.33;5.13;;;;;;;20.56;71.15;98160.94;5114535;27;20220;-76
2023/10/12 10:21:38;;;;;;;8.83;5.40;;;;;;;20.49;72.90;98171.25;5114828;28;20191;-76
2023/10/12 10:24:12;;;;;;;13.10;5.80;;;;;;;20.48;72.08;98180.44;5114733;28;20202;-76
2023/10/12 10:26:40;;;;;;;11.77;9.80;;;;;;;20.50;73.00;98173.69;5114957;28;20197;-76
2023/10/12 10:29:15;;;;;;;8.97;5.83;;;;;;;20.53;71.35;98175.81;5114391;28;20227;-76
2023/10/12 10:31:45;;;;;;;10.37;5.00;;;;;;;20.58;72.97;98174.97;5114573;28;20294;-76
2023/10/12 10:34:12;;;;;;;12.37;5.10;;;;;;;20.57;72.76;98174.16;5114738;28;20302;-76
2023/10/12 10:36:40;;;;;;;12.43;5.57;;;;;;;20.72;72.05;98170.56;5114212;27;20610;-76
2023/10/12 10:39:28;;;;;;;11.80;6.70;;;;;;;20.73;70.36;98174.88;5114566;28;20219;-76
2023/10/12 10:42:00;;;;;;;8.80;6.00;;;;;;;20.65;70.34;98175.47;5114337;28;20294;-76
2023/10/12 10:44:27;;;;;;;10.43;6.07;;;;;;;20.73;72.49;98174.88;5114316;28;20198;-76
2023/10/12 10:47:00;;;;;;;8.90;5.57;;;;;;;20.76;73.59;98167.00;5114661;28;20238;-76
2023/10/12 10:49:30;;;;;;;8.83;6.03;;;;;;;20.74;72.06;98163.78;5114594;28;20226;-76
2023/10/12 10:52:13;;;;;;;8.07;5.83;;;;;;;20.80;73.59;98161.88;5114013;28;20298;-76
2023/10/12 10:54:41;;;;;;;9.57;5.90;;;;;;;20.75;73.99;98164.59;5114518;28;20233;-75
2023/10/12 10:57:16;;;;;;;10.40;6.03;;;;;;;20.73;72.97;98164.06;5113356;28;20294;-75
2023/10/12 10:59:45;;;;;;;12.40;5.83;;;;;;;20.77;74.62;98174.03;5114098;27;20206;-75
2023/10/12 11:02:14;;;;;;;12.03;5.27;;;;;;;20.78;72.87;98167.53;5114442;28;20203;-75
2023/10/12 11:04:46;;;;;;;9.80;5.13;;;;;;;20.82;73.38;98156.97;5114432;28;20225;-75
2023/10/12 11:07:17;;;;;;;8.87;5.03;;;;;;;20.88;73.55;98156.66;5113585;28;20264;-75
2023/10/12 11:10:05;;;;;;;10.90;5.33;;;;;;;20.95;72.73;98161.78;5113953;28;20195;-75
2023/10/12 11:12:32;;;;;;;7.70;5.23;;;;;;;20.99;72.61;98154.72;5114082;28;20211;-75
2023/10/12 11:15:00;;;;;;;8.10;4.63;;;;;;;21.09;71.44;98158.16;5113429;28;20207;-75
2023/10/12 11:17:35;;;;;;;9.33;4.73;;;;;;;21.09;72.48;98151.91;5113740;28;20210;-75
2023/10/12 11:20:07;;;;;;;10.73;4.87;;;;;;;21.15;73.67;98158.88;5114112;28;20183;-75
2023/10/12 11:22:37;;;;;;;8.80;5.30;;;;;;;21.19;74.60;98141.00;5114337;28;20687;-75
2023/10/12 11:25:04;;;;;;;8.90;4.97;;;;;;;21.22;74.02;98153.97;5113788;28;20199;-75
2023/10/12 11:27:36;;;;;;;8.77;5.53;;;;;;;21.37;72.56;98151.13;5113716;28;20231;-75
2023/10/12 11:30:08;;;;;;;9.07;5.10;;;;;;;21.39;72.18;98146.25;5113954;28;20222;-75
2023/10/12 11:32:54;;;;;;;7.87;4.57;;;;;;;21.55;70.21;98147.69;5114042;28;20378;-74
2023/10/12 11:35:41;;;;;;;10.20;4.77;;;;;;;21.64;70.91;98146.78;5114068;28;20203;-75
2023/10/12 11:38:18;;;;;;;7.33;4.50;;;;;;;21.96;65.23;98160.50;5113824;28;20223;-75
2023/10/12 11:40:48;;;;;;;8.50;4.60;;;;;;;22.05;66.89;98157.97;5113857;28;20233;-75
2023/10/12 11:43:15;;;;;;;8.13;4.80;;;;;;;22.29;64.20;98159.53;5113782;28;20245;-75
2023/10/12 11:46:01;;;;;;;7.13;4.47;;;;;;;22.71;65.01;98156.00;5114934;28;20203;-75
2023/10/12 11:48:28;;;;;;;7.37;4.70;;;;;;;22.68;63.49;98156.59;5113210;28;20701;-74
2023/10/12 11:50:56;;;;;;;10.15;4.97;;;;;;;22.58;65.11;98144.00;5113185;28;20223;-74
2023/10/12 11:53:24;;;;;;;10.70;5.45;;;;;;;22.45;67.23;98157.44;5113730;28;20213;-74
2023/10/12 11:56:04;;;;;;;9.77;5.07;;;;;;;22.68;63.58;98160.09;5113585;28;20547;-75
2023/10/12 11:58:32;;;;;;;7.55;5.07;;;;;;;22.10;65.34;98160.59;5113625;28;20226;-75
2023/10/12 12:01:00;;;;;;;9.20;5.15;;;;;;;21.89;66.46;98164.66;5113660;28;20199;-75
2023/10/12 12:03:26;;;;;;;7.43;4.53;;;;;;;22.46;67.07;98164.47;5113472;28;20211;-75
2023/10/12 12:05:53;;;;;;;9.48;4.85;;;;;;;22.15;67.89;98158.66;5113411;28;20199;-75
2023/10/12 12:08:19;;;;;;;9.77;5.60;;;;;;;22.24;67.97;98169.66;5116349;28;20229;-75
2023/10/12 12:10:54;;;;;;;12.20;5.40;;;;;;;21.99;68.76;98170.78;5117104;28;20203;-75
2023/10/12 12:13:21;;;;;;;11.05;5.45;;;;;;;22.01;69.73;98162.34;5117492;28;20193;-75
2023/10/12 12:15:55;;;;;;;10.45;5.50;;;;;;;21.96;70.52;98163.22;5117167;28;20214;-75